Kambalda/Lake Lefroy, Australia
Current Conditions -  °F | °C
As of 9:00 AM on Saturday 01 Nov 2014 (Local Time) from YPKG Reporting Station
Clear Clear  
Wind Chill: 63°   Ceiling: Unl
Heat Index: 63°   Visibility: 6mi
Dew Point: 39°   Wind: 10mph
Humidity: 42%   Direction: 70°ENE
Pressure: 30.18"   Gusts: NA
Location:  31.17°S, 121.62°E
Report Text: YPKG 010100Z AUTO 07009KT 9999 // NCD 17/04 Q1022
Loading
Personal Weather Stations






























Interactive Weather Map
Tropical Storm Tracking
New forecast layout! Learn more

10-Day Weather Forecast

Advertisements
Track Severe Weather on mobile